sensor_id;sensor_type;location;lat;lon;timestamp;pressure;altitude;pressure_sealevel;temperature
6550;BMP280;15142;48.888;9.134;2023-04-16T00:01:25;98018.47;;;7.73
6550;BMP280;15142;48.888;9.134;2023-04-16T00:03:53;98014.41;;;7.72
6550;BMP280;15142;48.888;9.134;2023-04-16T00:06:23;98020.00;;;7.74
6550;BMP280;15142;48.888;9.134;2023-04-16T00:08:55;98014.66;;;7.71
6550;BMP280;15142;48.888;9.134;2023-04-16T00:11:27;98012.09;;;7.71
6550;BMP280;15142;48.888;9.134;2023-04-16T00:13:55;98018.22;;;7.70
6550;BMP280;15142;48.888;9.134;2023-04-16T00:16:24;98017.19;;;7.71
6550;BMP280;15142;48.888;9.134;2023-04-16T00:18:53;98018.22;;;7.70
6550;BMP280;15142;48.888;9.134;2023-04-16T00:21:21;98018.97;;;7.70
6550;BMP280;15142;48.888;9.134;2023-04-16T00:23:51;98023.28;;;7.70
6550;BMP280;15142;48.888;9.134;2023-04-16T00:26:22;98029.13;;;7.70
6550;BMP280;15142;48.888;9.134;2023-04-16T00:28:52;98027.59;;;7.69
6550;BMP280;15142;48.888;9.134;2023-04-16T00:31:26;98035.72;;;7.71
6550;BMP280;15142;48.888;9.134;2023-04-16T00:33:55;98026.59;;;7.70
6550;BMP280;15142;48.888;9.134;2023-04-16T00:36:25;98025.03;;;7.69
6550;BMP280;15142;48.888;9.134;2023-04-16T00:38:55;98032.66;;;7.69
6550;BMP280;15142;48.888;9.134;2023-04-16T00:41:26;98028.38;;;7.70
6550;BMP280;15142;48.888;9.134;2023-04-16T00:43:56;98028.59;;;7.69
6550;BMP280;15142;48.888;9.134;2023-04-16T00:46:25;98031.16;;;7.69
6550;BMP280;15142;48.888;9.134;2023-04-16T00:48:55;98025.31;;;7.68
6550;BMP280;15142;48.888;9.134;2023-04-16T00:51:24;98022.00;;;7.68
6550;BMP280;15142;48.888;9.134;2023-04-16T00:53:54;98033.44;;;7.70
6550;BMP280;15142;48.888;9.134;2023-04-16T00:58:56;98030.13;;;7.69
6550;BMP280;15142;48.888;9.134;2023-04-16T01:01:25;98030.66;;;7.71
6550;BMP280;15142;48.888;9.134;2023-04-16T01:03:54;98021.28;;;7.72
6550;BMP280;15142;48.888;9.134;2023-04-16T01:06:22;98029.88;;;7.71
6550;BMP280;15142;48.888;9.134;2023-04-16T01:08:51;98037.00;;;7.79
6550;BMP280;15142;48.888;9.134;2023-04-16T01:11:20;98029.13;;;7.70
6550;BMP280;15142;48.888;9.134;2023-04-16T01:13:49;98030.66;;;7.71
6550;BMP280;15142;48.888;9.134;2023-04-16T01:16:20;98031.13;;;7.64
6550;BMP280;15142;48.888;9.134;2023-04-16T01:18:51;98035.72;;;7.71
6550;BMP280;15142;48.888;9.134;2023-04-16T01:21:22;98033.94;;;7.67
6550;BMP280;15142;48.888;9.134;2023-04-16T01:23:51;98049.44;;;7.70
6550;BMP280;15142;48.888;9.134;2023-04-16T01:26:20;98044.84;;;7.68
6550;BMP280;15142;48.888;9.134;2023-04-16T01:28:48;98043.63;;;7.70
6550;BMP280;15142;48.888;9.134;2023-04-16T01:31:17;98036.00;;;7.70
6550;BMP280;15142;48.888;9.134;2023-04-16T01:34:09;98036.75;;;7.70
6550;BMP280;15142;48.888;9.134;2023-04-16T01:36:40;98042.59;;;7.71
6550;BMP280;15142;48.888;9.134;2023-04-16T01:39:08;98039.28;;;7.70
6550;BMP280;15142;48.888;9.134;2023-04-16T01:41:40;98040.81;;;7.71
6550;BMP280;15142;48.888;9.134;2023-04-16T01:44:10;98039.81;;;7.72
6550;BMP280;15142;48.888;9.134;2023-04-16T01:46:38;98043.63;;;7.70
6550;BMP280;15142;48.888;9.134;2023-04-16T01:49:07;98045.38;;;7.69
6550;BMP280;15142;48.888;9.134;2023-04-16T01:51:36;98042.31;;;7.68
6550;BMP280;15142;48.888;9.134;2023-04-16T01:54:07;98049.44;;;7.70
6550;BMP280;15142;48.888;9.134;2023-04-16T01:56:38;98053.78;;;7.70
6550;BMP280;15142;48.888;9.134;2023-04-16T01:59:06;98050.19;;;7.71
6550;BMP280;15142;48.888;9.134;2023-04-16T02:01:39;98050.97;;;7.71
6550;BMP280;15142;48.888;9.134;2023-04-16T02:04:08;98038.25;;;7.71
6550;BMP280;15142;48.888;9.134;2023-04-16T02:06:37;98047.19;;;7.74
6550;BMP280;15142;48.888;9.134;2023-04-16T02:09:08;98044.38;;;7.70
6550;BMP280;15142;48.888;9.134;2023-04-16T02:11:38;98056.56;;;7.73
6550;BMP280;15142;48.888;9.134;2023-04-16T02:14:07;98050.44;;;7.69
6550;BMP280;15142;48.888;9.134;2023-04-16T02:16:36;98038.75;;;7.64
6550;BMP280;15142;48.888;9.134;2023-04-16T02:19:18;98043.09;;;7.68
6550;BMP280;15142;48.888;9.134;2023-04-16T02:21:47;98038.75;;;7.64
6550;BMP280;15142;48.888;9.134;2023-04-16T02:24:18;98049.44;;;7.70
6550;BMP280;15142;48.888;9.134;2023-04-16T02:26:47;98042.06;;;7.69
6550;BMP280;15142;48.888;9.134;2023-04-16T02:29:18;98041.81;;;7.66
6550;BMP280;15142;48.888;9.134;2023-04-16T02:31:53;98053.50;;;7.67
6550;BMP280;15142;48.888;9.134;2023-04-16T02:34:22;98048.41;;;7.67
6550;BMP280;15142;48.888;9.134;2023-04-16T02:36:51;98049.94;;;7.68
6550;BMP280;15142;48.888;9.134;2023-04-16T02:39:24;98047.91;;;7.69
6550;BMP280;15142;48.888;9.134;2023-04-16T02:41:53;98046.91;;;7.70
6550;BMP280;15142;48.888;9.134;2023-04-16T02:44:22;98048.41;;;7.67
6550;BMP280;15142;48.888;9.134;2023-04-16T02:46:50;98049.94;;;7.68
6550;BMP280;15142;48.888;9.134;2023-04-16T02:49:19;98049.94;;;7.68
6550;BMP280;15142;48.888;9.134;2023-04-16T02:51:48;98056.56;;;7.69
6550;BMP280;15142;48.888;9.134;2023-04-16T02:54:17;98058.84;;;7.70
6550;BMP280;15142;48.888;9.134;2023-04-16T02:56:48;98065.44;;;7.71
6550;BMP280;15142;48.888;9.134;2023-04-16T02:59:17;98060.38;;;7.71
6550;BMP280;15142;48.888;9.134;2023-04-16T03:01:46;98058.84;;;7.65
6550;BMP280;15142;48.888;9.134;2023-04-16T03:04:15;98062.13;;;7.66
6550;BMP280;15142;48.888;9.134;2023-04-16T03:06:44;98060.09;;;7.68
6550;BMP280;15142;48.888;9.134;2023-04-16T03:09:13;98065.16;;;7.68
6550;BMP280;15142;48.888;9.134;2023-04-16T03:11:42;98060.84;;;7.63
6550;BMP280;15142;48.888;9.134;2023-04-16T03:14:13;98061.63;;;7.64
6550;BMP280;15142;48.888;9.134;2023-04-16T03:16:42;98053.47;;;7.62
6550;BMP280;15142;48.888;9.134;2023-04-16T03:19:10;98070.25;;;7.68
6550;BMP280;15142;48.888;9.134;2023-04-16T03:21:39;98067.22;;;7.66
6550;BMP280;15142;48.888;9.134;2023-04-16T03:24:08;98066.69;;;7.64
6550;BMP280;15142;48.888;9.134;2023-04-16T03:26:36;98061.38;;;7.65
6550;BMP280;15142;48.888;9.134;2023-04-16T03:29:06;98069.00;;;7.65
6550;BMP280;15142;48.888;9.134;2023-04-16T03:31:37;98064.16;;;7.64
6550;BMP280;15142;48.888;9.134;2023-04-16T03:34:06;98073.56;;;7.63
6550;BMP280;15142;48.888;9.134;2023-04-16T03:36:35;98071.25;;;7.62
6550;BMP280;15142;48.888;9.134;2023-04-16T03:39:03;98079.38;;;7.64
6550;BMP280;15142;48.888;9.134;2023-04-16T03:41:32;98068.19;;;7.60
6550;BMP280;15142;48.888;9.134;2023-04-16T03:44:02;98072.50;;;7.59
6550;BMP280;15142;48.888;9.134;2023-04-16T03:46:32;98078.34;;;7.60
6550;BMP280;15142;48.888;9.134;2023-04-16T03:49:03;98074.06;;;7.60
6550;BMP280;15142;48.888;9.134;2023-04-16T03:51:33;98079.13;;;7.60
6550;BMP280;15142;48.888;9.134;2023-04-16T03:54:02;98076.59;;;7.60
6550;BMP280;15142;48.888;9.134;2023-04-16T03:56:31;98091.56;;;7.62
6550;BMP280;15142;48.888;9.134;2023-04-16T03:59:01;98088.50;;;7.60
6550;BMP280;15142;48.888;9.134;2023-04-16T04:01:30;98089.00;;;7.57
6550;BMP280;15142;48.888;9.134;2023-04-16T04:03:59;98093.06;;;7.58
6550;BMP280;15142;48.888;9.134;2023-04-16T04:06:30;98087.00;;;7.54
6550;BMP280;15142;48.888;9.134;2023-04-16T04:08:59;98089.78;;;7.57
6550;BMP280;15142;48.888;9.134;2023-04-16T04:11:28;98103.75;;;7.60
6550;BMP280;15142;48.888;9.134;2023-04-16T04:13:56;98089.53;;;7.54
6550;BMP280;15142;48.888;9.134;2023-04-16T04:16:25;98094.63;;;7.54
6550;BMP280;15142;48.888;9.134;2023-04-16T04:18:54;98094.63;;;7.54
6550;BMP280;15142;48.888;9.134;2023-04-16T04:21:30;98097.16;;;7.54
6550;BMP280;15142;48.888;9.134;2023-04-16T04:23:59;98094.84;;;7.57
6550;BMP280;15142;48.888;9.134;2023-04-16T04:26:29;98096.91;;;7.55
6550;BMP280;15142;48.888;9.134;2023-04-16T04:28:57;98105.00;;;7.57
6550;BMP280;15142;48.888;9.134;2023-04-16T04:31:26;98105.78;;;7.53
6550;BMP280;15142;48.888;9.134;2023-04-16T04:33:55;98106.28;;;7.55
6550;BMP280;15142;48.888;9.134;2023-04-16T04:36:23;98109.31;;;7.57
6550;BMP280;15142;48.888;9.134;2023-04-16T04:38:56;98114.41;;;7.57
6550;BMP280;15142;48.888;9.134;2023-04-16T04:41:25;98115.91;;;7.58
6550;BMP280;15142;48.888;9.134;2023-04-16T04:43:54;98125.31;;;7.57
6550;BMP280;15142;48.888;9.134;2023-04-16T04:46:24;98121.78;;;7.58
6550;BMP280;15142;48.888;9.134;2023-04-16T04:48:53;98122.56;;;7.54
6550;BMP280;15142;48.888;9.134;2023-04-16T04:51:22;98119.22;;;7.53
6550;BMP280;15142;48.888;9.134;2023-04-16T04:53:51;98122.28;;;7.55
6550;BMP280;15142;48.888;9.134;2023-04-16T04:58:56;98140.84;;;7.61
6550;BMP280;15142;48.888;9.134;2023-04-16T05:01:25;98132.72;;;7.54
6550;BMP280;15142;48.888;9.134;2023-04-16T05:03:54;98137.53;;;7.55
6550;BMP280;15142;48.888;9.134;2023-04-16T05:06:22;98138.78;;;7.53
6550;BMP280;15142;48.888;9.134;2023-04-16T05:08:51;98136.75;;;7.55
6550;BMP280;15142;48.888;9.134;2023-04-16T05:11:20;98146.16;;;7.54
6550;BMP280;15142;48.888;9.134;2023-04-16T05:13:49;98155.03;;;7.57
6550;BMP280;15142;48.888;9.134;2023-04-16T05:16:20;98154.00;;;7.58
6550;BMP280;15142;48.888;9.134;2023-04-16T05:18:49;98152.50;;;7.57
6550;BMP280;15142;48.888;9.134;2023-04-16T05:21:17;98153.03;;;7.54
6550;BMP280;15142;48.888;9.134;2023-04-16T05:23:46;98156.53;;;7.58
6550;BMP280;15142;48.888;9.134;2023-04-16T05:26:15;98154.00;;;7.53
6550;BMP280;15142;48.888;9.134;2023-04-16T05:28:44;98162.16;;;7.55
6550;BMP280;15142;48.888;9.134;2023-04-16T05:31:12;98159.09;;;7.53
6550;BMP280;15142;48.888;9.134;2023-04-16T05:33:43;98163.19;;;7.54
6550;BMP280;15142;48.888;9.134;2023-04-16T05:36:12;98162.16;;;7.55
6550;BMP280;15142;48.888;9.134;2023-04-16T05:38:41;98159.84;;;7.53
6550;BMP280;15142;48.888;9.134;2023-04-16T05:41:10;98161.13;;;7.56
6550;BMP280;15142;48.888;9.134;2023-04-16T05:43:38;98165.72;;;7.54
6550;BMP280;15142;48.888;9.134;2023-04-16T05:46:07;98166.69;;;7.48
6550;BMP280;15142;48.888;9.134;2023-04-16T05:48:35;98173.84;;;7.56
6550;BMP280;15142;48.888;9.134;2023-04-16T05:51:07;98180.44;;;7.57
6550;BMP280;15142;48.888;9.134;2023-04-16T05:53:36;98176.63;;;7.54
6550;BMP280;15142;48.888;9.134;2023-04-16T05:56:06;98184.00;;;7.56
6550;BMP280;15142;48.888;9.134;2023-04-16T05:58:35;98186.03;;;7.54
6550;BMP280;15142;48.888;9.134;2023-04-16T06:01:03;98182.47;;;7.55
6550;BMP280;15142;48.888;9.134;2023-04-16T06:03:33;98191.34;;;7.57
6550;BMP280;15142;48.888;9.134;2023-04-16T06:06:01;98190.88;;;7.60
6550;BMP280;15142;48.888;9.134;2023-04-16T06:08:32;98193.16;;;7.62
6550;BMP280;15142;48.888;9.134;2023-04-16T06:11:01;98183.00;;;7.62
6550;BMP280;15142;48.888;9.134;2023-04-16T06:13:29;98186.56;;;7.61
6550;BMP280;15142;48.888;9.134;2023-04-16T06:15:58;98194.69;;;7.63
6550;BMP280;15142;48.888;9.134;2023-04-16T06:18:27;98190.38;;;7.63
6550;BMP280;15142;48.888;9.134;2023-04-16T06:20:56;98199.78;;;7.68
6550;BMP280;15142;48.888;9.134;2023-04-16T06:23:25;98191.16;;;7.69
6550;BMP280;15142;48.888;9.134;2023-04-16T06:25:56;98190.13;;;7.65
6550;BMP280;15142;48.888;9.134;2023-04-16T06:28:25;98192.69;;;7.65
6550;BMP280;15142;48.888;9.134;2023-04-16T06:30:53;98185.06;;;7.65
6550;BMP280;15142;48.888;9.134;2023-04-16T06:33:22;98190.63;;;7.67
6550;BMP280;15142;48.888;9.134;2023-04-16T06:35:50;98192.69;;;7.65
6550;BMP280;15142;48.888;9.134;2023-04-16T06:38:19;98197.53;;;7.71
6550;BMP280;15142;48.888;9.134;2023-04-16T06:40:48;98198.56;;;7.75
6550;BMP280;15142;48.888;9.134;2023-04-16T06:43:19;98206.91;;;7.70
6550;BMP280;15142;48.888;9.134;2023-04-16T06:45:48;98191.69;;;7.70
6550;BMP280;15142;48.888;9.134;2023-04-16T06:48:16;98199.81;;;7.72
6550;BMP280;15142;48.888;9.134;2023-04-16T06:50:45;98207.44;;;7.77
6550;BMP280;15142;48.888;9.134;2023-04-16T06:53:14;98193.94;;;7.67
6550;BMP280;15142;48.888;9.134;2023-04-16T06:55:43;98209.22;;;7.77
6550;BMP280;15142;48.888;9.134;2023-04-16T06:58:11;98216.13;;;7.76
6550;BMP280;15142;48.888;9.134;2023-04-16T07:00:42;98210.75;;;7.78
6550;BMP280;15142;48.888;9.134;2023-04-16T07:03:11;98208.00;;;7.84
6550;BMP280;15142;48.888;9.134;2023-04-16T07:05:40;98212.84;;;7.91
6550;BMP280;15142;48.888;9.134;2023-04-16T07:08:09;98214.38;;;7.87
6550;BMP280;15142;48.888;9.134;2023-04-16T07:10:37;98219.44;;;7.82
6550;BMP280;15142;48.888;9.134;2023-04-16T07:13:06;98218.19;;;7.84
6550;BMP280;15142;48.888;9.134;2023-04-16T07:15:34;98230.34;;;7.82
6550;BMP280;15142;48.888;9.134;2023-04-16T07:18:06;98223.72;;;7.81
6550;BMP280;15142;48.888;9.134;2023-04-16T07:20:34;98216.16;;;7.86
6550;BMP280;15142;48.888;9.134;2023-04-16T07:23:03;98224.81;;;7.90
6550;BMP280;15142;48.888;9.134;2023-04-16T07:25:31;98220.72;;;7.84
6550;BMP280;15142;48.888;9.134;2023-04-16T07:28:01;98227.88;;;7.92
6550;BMP280;15142;48.888;9.134;2023-04-16T07:30:30;98227.81;;;7.87
6550;BMP280;15142;48.888;9.134;2023-04-16T07:33:02;98232.66;;;7.89
6550;BMP280;15142;48.888;9.134;2023-04-16T07:35:33;98236.00;;;7.94
6550;BMP280;15142;48.888;9.134;2023-04-16T07:38:01;98233.94;;;7.91
6550;BMP280;15142;48.888;9.134;2023-04-16T07:40:31;98238.25;;;7.91
6550;BMP280;15142;48.888;9.134;2023-04-16T07:43:01;98242.09;;;7.93
6550;BMP280;15142;48.888;9.134;2023-04-16T07:45:29;98244.91;;;8.01
6550;BMP280;15142;48.888;9.134;2023-04-16T07:47:57;98237.56;;;8.05
6550;BMP280;15142;48.888;9.134;2023-04-16T07:50:26;98245.16;;;7.95
6550;BMP280;15142;48.888;9.134;2023-04-16T07:52:57;98248.19;;;7.97
6550;BMP280;15142;48.888;9.134;2023-04-16T07:55:26;98242.63;;;8.00
6550;BMP280;15142;48.888;9.134;2023-04-16T07:57:54;98251.78;;;8.01
6550;BMP280;15142;48.888;9.134;2023-04-16T08:00:23;98250.78;;;8.02
6550;BMP280;15142;48.888;9.134;2023-04-16T08:02:51;98249.72;;;7.98
6550;BMP280;15142;48.888;9.134;2023-04-16T08:05:20;98253.25;;;7.97
6550;BMP280;15142;48.888;9.134;2023-04-16T08:07:49;98255.31;;;7.95
6550;BMP280;15142;48.888;9.134;2023-04-16T08:10:20;98258.34;;;7.97
6550;BMP280;15142;48.888;9.134;2023-04-16T08:12:48;98267.53;;;8.03
6550;BMP280;15142;48.888;9.134;2023-04-16T08:15:17;98249.22;;;8.01
6550;BMP280;15142;48.888;9.134;2023-04-16T08:17:46;98269.09;;;8.04
6550;BMP280;15142;48.888;9.134;2023-04-16T08:20:15;98276.22;;;8.07
6550;BMP280;15142;48.888;9.134;2023-04-16T08:22:44;98267.25;;;8.00
6550;BMP280;15142;48.888;9.134;2023-04-16T08:25:12;98287.34;;;8.01
6550;BMP280;15142;48.888;9.134;2023-04-16T08:27:44;98274.94;;;8.04
6550;BMP280;15142;48.888;9.134;2023-04-16T08:30:12;98291.91;;;7.99
6550;BMP280;15142;48.888;9.134;2023-04-16T08:32:41;98290.44;;;8.08
6550;BMP280;15142;48.888;9.134;2023-04-16T08:35:10;98289.19;;;8.10
6550;BMP280;15142;48.888;9.134;2023-04-16T08:37:39;98297.09;;;8.19
6550;BMP280;15142;48.888;9.134;2023-04-16T08:40:08;98288.69;;;8.13
6550;BMP280;15142;48.888;9.134;2023-04-16T08:42:39;98294.31;;;8.20
6550;BMP280;15142;48.888;9.134;2023-04-16T08:45:16;98296.06;;;8.15
6550;BMP280;15142;48.888;9.134;2023-04-16T08:47:46;98294.75;;;8.07
6550;BMP280;15142;48.888;9.134;2023-04-16T08:50:15;98303.66;;;8.10
6550;BMP280;15142;48.888;9.134;2023-04-16T08:52:49;98307.78;;;8.16
6550;BMP280;15142;48.888;9.134;2023-04-16T08:55:21;98308.53;;;8.16
6550;BMP280;15142;48.888;9.134;2023-04-16T08:57:53;98305.75;;;8.18
6550;BMP280;15142;48.888;9.134;2023-04-16T09:00:27;98311.38;;;8.30
6550;BMP280;15142;48.888;9.134;2023-04-16T09:02:56;98306.03;;;8.31
6550;BMP280;15142;48.888;9.134;2023-04-16T09:05:26;98309.84;;;8.29
6550;BMP280;15142;48.888;9.134;2023-04-16T09:07:56;98307.34;;;8.38
6550;BMP280;15142;48.888;9.134;2023-04-16T09:10:25;98308.09;;;8.39
6550;BMP280;15142;48.888;9.134;2023-04-16T09:12:55;98308.34;;;8.32
6550;BMP280;15142;48.888;9.134;2023-04-16T09:15:26;98310.88;;;8.28
6550;BMP280;15142;48.888;9.134;2023-04-16T09:17:55;98310.91;;;8.47
6550;BMP280;15142;48.888;9.134;2023-04-16T09:20:24;98315.72;;;8.39
6550;BMP280;15142;48.888;9.134;2023-04-16T09:22:52;98311.94;;;8.41
6550;BMP280;15142;48.888;9.134;2023-04-16T09:25:22;98315.50;;;8.45
6550;BMP280;15142;48.888;9.134;2023-04-16T09:27:51;98320.63;;;8.50
6550;BMP280;15142;48.888;9.134;2023-04-16T09:30:22;98319.84;;;8.50
6550;BMP280;15142;48.888;9.134;2023-04-16T09:33:13;98321.63;;;8.44
6550;BMP280;15142;48.888;9.134;2023-04-16T09:35:47;98329.06;;;8.56
6550;BMP280;15142;48.888;9.134;2023-04-16T09:38:16;98320.16;;;8.63
6550;BMP280;15142;48.888;9.134;2023-04-16T09:40:46;98326.75;;;8.54
6550;BMP280;15142;48.888;9.134;2023-04-16T09:43:15;98333.38;;;8.60
6550;BMP280;15142;48.888;9.134;2023-04-16T09:45:48;98335.19;;;8.64
6550;BMP280;15142;48.888;9.134;2023-04-16T09:48:26;98325.22;;;8.58
6550;BMP280;15142;48.888;9.134;2023-04-16T09:50:56;98328.81;;;8.62
6550;BMP280;15142;48.888;9.134;2023-04-16T09:53:26;98331.09;;;8.54
6550;BMP280;15142;48.888;9.134;2023-04-16T09:55:55;98339.47;;;8.59
6550;BMP280;15142;48.888;9.134;2023-04-16T09:58:24;98337.94;;;8.58
6550;BMP280;15142;48.888;9.134;2023-04-16T10:00:54;98345.59;;;8.63
6550;BMP280;15142;48.888;9.134;2023-04-16T10:03:33;98351.66;;;8.57
6550;BMP280;15142;48.888;9.134;2023-04-16T10:06:06;98342.28;;;8.63
6550;BMP280;15142;48.888;9.134;2023-04-16T10:08:35;98349.19;;;8.72
6550;BMP280;15142;48.888;9.134;2023-04-16T10:11:04;98332.16;;;8.72
6550;BMP280;15142;48.888;9.134;2023-04-16T10:13:33;98358.84;;;8.65
6550;BMP280;15142;48.888;9.134;2023-04-16T10:16:02;98349.94;;;8.67
6550;BMP280;15142;48.888;9.134;2023-04-16T10:18:34;98351.47;;;8.68
6550;BMP280;15142;48.888;9.134;2023-04-16T10:21:03;98363.91;;;8.65
6550;BMP280;15142;48.888;9.134;2023-04-16T10:23:32;98350.16;;;8.61
6550;BMP280;15142;48.888;9.134;2023-04-16T10:26:01;98359.66;;;8.75
6550;BMP280;15142;48.888;9.134;2023-04-16T10:28:30;98363.94;;;8.70
6550;BMP280;15142;48.888;9.134;2023-04-16T10:31:01;98364.22;;;8.78
6550;BMP280;15142;48.888;9.134;2023-04-16T10:33:34;98362.41;;;8.64
6550;BMP280;15142;48.888;9.134;2023-04-16T10:36:07;98355.00;;;8.63
6550;BMP280;15142;48.888;9.134;2023-04-16T10:38:43;98367.50;;;8.64
6550;BMP280;15142;48.888;9.134;2023-04-16T10:41:12;98359.81;;;8.59
6550;BMP280;15142;48.888;9.134;2023-04-16T10:43:42;98366.91;;;8.57
6550;BMP280;15142;48.888;9.134;2023-04-16T10:46:22;98360.59;;;8.60
6550;BMP280;15142;48.888;9.134;2023-04-16T10:48:55;98362.13;;;8.61
6550;BMP280;15142;48.888;9.134;2023-04-16T10:51:26;98357.06;;;8.70
6550;BMP280;15142;48.888;9.134;2023-04-16T10:53:56;98357.25;;;8.59
6550;BMP280;15142;48.888;9.134;2023-04-16T10:56:26;98370.50;;;8.56
6550;BMP280;15142;48.888;9.134;2023-04-16T10:58:55;98358.63;;;8.71
6550;BMP280;15142;48.888;9.134;2023-04-16T11:01:31;98360.34;;;8.66
6550;BMP280;15142;48.888;9.134;2023-04-16T11:04:26;98366.44;;;8.60
6550;BMP280;15142;48.888;9.134;2023-04-16T11:07:15;98362.63;;;8.58
6550;BMP280;15142;48.888;9.134;2023-04-16T11:09:51;98366.97;;;8.67
6550;BMP280;15142;48.888;9.134;2023-04-16T11:12:22;98374.09;;;8.65
6550;BMP280;15142;48.888;9.134;2023-04-16T11:14:53;98371.38;;;8.81
6550;BMP280;15142;48.888;9.134;2023-04-16T11:17:27;98374.63;;;8.72
6550;BMP280;15142;48.888;9.134;2023-04-16T11:19:59;98373.06;;;8.61
6550;BMP280;15142;48.888;9.134;2023-04-16T11:22:28;98377.09;;;8.57
6550;BMP280;15142;48.888;9.134;2023-04-16T11:24:57;98378.63;;;8.58
6550;BMP280;15142;48.888;9.134;2023-04-16T11:27:26;98371.00;;;8.58
6550;BMP280;15142;48.888;9.134;2023-04-16T11:29:58;98380.47;;;8.67
6550;BMP280;15142;48.888;9.134;2023-04-16T11:32:30;98375.88;;;8.60
6550;BMP280;15142;48.888;9.134;2023-04-16T11:35:03;98381.19;;;8.58
6550;BMP280;15142;48.888;9.134;2023-04-16T11:37:34;98377.88;;;8.58
6550;BMP280;15142;48.888;9.134;2023-04-16T11:40:03;98377.16;;;8.62
6550;BMP280;15142;48.888;9.134;2023-04-16T11:42:33;98372.06;;;8.62
6550;BMP280;15142;48.888;9.134;2023-04-16T11:45:02;98379.19;;;8.65
6550;BMP280;15142;48.888;9.134;2023-04-16T11:47:34;98372.28;;;8.61
6550;BMP280;15142;48.888;9.134;2023-04-16T11:50:21;98378.44;;;8.64
6550;BMP280;15142;48.888;9.134;2023-04-16T11:52:50;98380.69;;;8.66
6550;BMP280;15142;48.888;9.134;2023-04-16T11:55:20;98370.84;;;8.74
6550;BMP280;15142;48.888;9.134;2023-04-16T11:57:49;98381.00;;;8.69
6550;BMP280;15142;48.888;9.134;2023-04-16T12:00:18;98381.47;;;8.66
6550;BMP280;15142;48.888;9.134;2023-04-16T12:02:49;98387.84;;;8.69
6550;BMP280;15142;48.888;9.134;2023-04-16T12:05:31;98380.44;;;8.63
6550;BMP280;15142;48.888;9.134;2023-04-16T12:08:01;98384.75;;;8.67
6550;BMP280;15142;48.888;9.134;2023-04-16T12:10:31;98387.78;;;8.59
6550;BMP280;15142;48.888;9.134;2023-04-16T12:13:11;98382.47;;;8.61
6550;BMP280;15142;48.888;9.134;2023-04-16T12:15:44;98381.69;;;8.55
6550;BMP280;15142;48.888;9.134;2023-04-16T12:18:13;98386.50;;;8.57
6550;BMP280;15142;48.888;9.134;2023-04-16T12:20:45;98383.72;;;8.53
6550;BMP280;15142;48.888;9.134;2023-04-16T12:23:22;98395.97;;;8.66
6550;BMP280;15142;48.888;9.134;2023-04-16T12:25:50;98389.63;;;8.68
6550;BMP280;15142;48.888;9.134;2023-04-16T12:28:27;98405.06;;;8.52
6550;BMP280;15142;48.888;9.134;2023-04-16T12:30:56;98402.53;;;8.57
6550;BMP280;15142;48.888;9.134;2023-04-16T12:33:25;98394.91;;;8.57
6550;BMP280;15142;48.888;9.134;2023-04-16T12:35:56;98399.03;;;8.68
6550;BMP280;15142;48.888;9.134;2023-04-16T12:38:26;98399.28;;;8.66
6550;BMP280;15142;48.888;9.134;2023-04-16T12:40:54;98406.44;;;8.69
6550;BMP280;15142;48.888;9.134;2023-04-16T12:43:23;98408.19;;;8.69
6550;BMP280;15142;48.888;9.134;2023-04-16T12:45:52;98404.16;;;8.73
6550;BMP280;15142;48.888;9.134;2023-04-16T12:48:21;98394.44;;;8.60
6550;BMP280;15142;48.888;9.134;2023-04-16T12:50:52;98393.97;;;8.73
6550;BMP280;15142;48.888;9.134;2023-04-16T12:53:23;98393.47;;;8.76
6550;BMP280;15142;48.888;9.134;2023-04-16T12:55:53;98395.75;;;8.72
6550;BMP280;15142;48.888;9.134;2023-04-16T12:58:21;98388.88;;;8.73
6550;BMP280;15142;48.888;9.134;2023-04-16T13:00:50;98396.28;;;8.74
6550;BMP280;15142;48.888;9.134;2023-04-16T13:03:18;98398.28;;;8.67
6550;BMP280;15142;48.888;9.134;2023-04-16T13:05:47;98395.75;;;8.72
6550;BMP280;15142;48.888;9.134;2023-04-16T13:08:16;98392.16;;;8.68
6550;BMP280;15142;48.888;9.134;2023-04-16T13:10:47;98392.97;;;8.74
6550;BMP280;15142;48.888;9.134;2023-04-16T13:13:16;98396.78;;;8.76
6550;BMP280;15142;48.888;9.134;2023-04-16T13:15:44;98386.13;;;8.79
6550;BMP280;15142;48.888;9.134;2023-04-16T13:18:13;98389.97;;;8.92
6550;BMP280;15142;48.888;9.134;2023-04-16T13:20:42;98387.16;;;8.88
6550;BMP280;15142;48.888;9.134;2023-04-16T13:23:11;98386.88;;;8.80
6550;BMP280;15142;48.888;9.134;2023-04-16T13:25:40;98393.00;;;8.89
6550;BMP280;15142;48.888;9.134;2023-04-16T13:28:11;98388.16;;;8.87
6550;BMP280;15142;48.888;9.134;2023-04-16T13:30:40;98390.44;;;8.89
6550;BMP280;15142;48.888;9.134;2023-04-16T13:33:09;98385.06;;;8.85
6550;BMP280;15142;48.888;9.134;2023-04-16T13:35:38;98384.38;;;8.90
6550;BMP280;15142;48.888;9.134;2023-04-16T13:38:06;98390.47;;;8.98
6550;BMP280;15142;48.888;9.134;2023-04-16T13:40:35;98386.88;;;8.80
6550;BMP280;15142;48.888;9.134;2023-04-16T13:43:03;98396.03;;;8.86
6550;BMP280;15142;48.888;9.134;2023-04-16T13:45:36;98390.19;;;8.95
6550;BMP280;15142;48.888;9.134;2023-04-16T13:48:05;98394.06;;;8.97
6550;BMP280;15142;48.888;9.134;2023-04-16T13:50:33;98395.81;;;8.97
6550;BMP280;15142;48.888;9.134;2023-04-16T13:53:02;98398.66;;;9.05
6550;BMP280;15142;48.888;9.134;2023-04-16T13:55:30;98398.34;;;8.97
6550;BMP280;15142;48.888;9.134;2023-04-16T13:58:00;98406.00;;;8.97
6550;BMP280;15142;48.888;9.134;2023-04-16T14:00:29;98404.97;;;8.88
6550;BMP280;15142;48.888;9.134;2023-04-16T14:03:00;98400.63;;;8.89
6550;BMP280;15142;48.888;9.134;2023-04-16T14:05:30;98402.19;;;8.90
6550;BMP280;15142;48.888;9.134;2023-04-16T14:07:58;98400.66;;;8.98
6550;BMP280;15142;48.888;9.134;2023-04-16T14:10:27;98397.84;;;8.90
6550;BMP280;15142;48.888;9.134;2023-04-16T14:12:56;98396.03;;;8.86
6550;BMP280;15142;48.888;9.134;2023-04-16T14:15:25;98397.09;;;8.90
6550;BMP280;15142;48.888;9.134;2023-04-16T14:17:54;98403.69;;;8.91
6550;BMP280;15142;48.888;9.134;2023-04-16T14:20:25;98402.69;;;8.96
6550;BMP280;15142;48.888;9.134;2023-04-16T14:22:54;98404.47;;;8.96
6550;BMP280;15142;48.888;9.134;2023-04-16T14:25:23;98398.66;;;9.00
6550;BMP280;15142;48.888;9.134;2023-04-16T14:27:51;98401.16;;;8.95
6550;BMP280;15142;48.888;9.134;2023-04-16T14:30:20;98396.31;;;8.94
6550;BMP280;15142;48.888;9.134;2023-04-16T14:32:49;98406.50;;;8.99
6550;BMP280;15142;48.888;9.134;2023-04-16T14:35:18;98398.34;;;8.97
6550;BMP280;15142;48.888;9.134;2023-04-16T14:37:50;98403.22;;;8.98
6550;BMP280;15142;48.888;9.134;2023-04-16T14:40:18;98396.06;;;8.95
6550;BMP280;15142;48.888;9.134;2023-04-16T14:42:47;98396.63;;;9.02
6550;BMP280;15142;48.888;9.134;2023-04-16T14:45:15;98393.56;;;9.00
6550;BMP280;15142;48.888;9.134;2023-04-16T14:47:44;98400.66;;;8.98
6550;BMP280;15142;48.888;9.134;2023-04-16T14:50:14;98398.88;;;8.99
6550;BMP280;15142;48.888;9.134;2023-04-16T14:52:42;98394.81;;;8.98
6550;BMP280;15142;48.888;9.134;2023-04-16T14:55:13;98399.16;;;8.97